Meteo Giornale » Osservazioni meteo Stati Uniti (USA) » Norfolk-Hampton
ore: 16:56 - Osservazioni Meteo Norfolk-Hampton
Lat. 36° 47' N Lon. 76° 27' W Alt. 7 metri s.l.m.
24 °C
Temporale
Temp. 24 Ore
19 °C
34 °C
Nord
0 Km/h
Dew point 24 °C
Umidità 100 %
Visibilità 10 Km
Il sole sorge alle ore 06:36
Il sole tramonta alle ore 19:35
| Data e Ora | Cielo e Fenomeni | T °C | DP °C | Um. % | Pres. hPa | Vis. km | Vento km/h | |
|---|---|---|---|---|---|---|---|---|
| Oggi h: 16:56 | Temporale | 24 | 24 | 100 | 1018 | 10 | N 0 | |
| Oggi h: 16:55 | Temporale | 24 | 24 | 100 | 1018 | 10 | N 0 | |
| Oggi h: 16:45 | Temporale nelle vicinanze Pioggia | 25 | 24 | 94 | 1018 | 10 | N 9.3 | |
| Oggi h: 15:56 | Nuvoloso | 33 | 21 | 49 | 1018 | 10 | S 13 | |
| Oggi h: 15:55 | Nuvoloso | 33 | 21 | 49 | 1018 | 10 | S/SE 13 | |
| Oggi h: 14:56 | Poco Nuvoloso | 33 | 22 | 52 | 1018 | 10 | N 5.5 | |
| Oggi h: 14:55 | Poco Nuvoloso | 33 | 21 | 49 | 1018 | 10 | S 7.4 | |
| Oggi h: 13:56 | Sereno | 34 | 21 | 46 | 1018 | 10 | N 0 | |
| Oggi h: 13:55 | Sereno | 33 | 21 | 49 | 1018 | 10 | N 5.5 | |
| Oggi h: 12:56 | Sereno | 33 | 22 | 52 | 1019 | 10 | N 0 | |
| Oggi h: 12:55 | Sereno | 33 | 22 | 52 | 1019 | 10 | N 0 | |
| Oggi h: 11:56 | Sereno | 32 | 22 | 55 | 1019 | 10 | N 0 | |
| Oggi h: 11:55 | Sereno | 32 | 22 | 55 | 1019 | 10 | N 5.5 | |
| Oggi h: 10:56 | Sereno | 31 | 23 | 62 | 1020 | 10 | NO 7.4 | |
| Oggi h: 10:55 | Sereno | 31 | 23 | 62 | 1020 | 10 | NO 7.4 | |
| Oggi h: 09:56 | Sereno | 28 | 24 | 78 | 1019 | 10 | N 5.5 | |
| Oggi h: 09:55 | Sereno | 28 | 24 | 78 | 1019 | 10 | O/SO 7.4 | |
| Oggi h: 08:56 | Sereno | 25 | 24 | 94 | 1019 | 10 | N 5.5 | |
| Oggi h: 08:55 | Sereno | 25 | 24 | 94 | 1019 | 10 | N 5.5 | |
| Oggi h: 07:56 | Sereno | 22 | 0 | 23 | 1019 | 10 | N 0 | |
| Oggi h: 07:55 | Sereno | 22 | 0 | 23 | 1019 | 10 | N 0 | |
| Oggi h: 07:07 | Sereno | 20 | 0 | 26 | 1019 | 6 | N 0 | |
| Oggi h: 07:06 | Foschia | 20 | 0 | 26 | 1019 | 6 | N 0 | |
| Oggi h: 07:03 | Poco Nuvoloso | 20 | 0 | 26 | 1019 | 3 | N 0 | |
| Oggi h: 07:01 | Foschia | 20 | 0 | 26 | 1019 | 2 | N 0 | |
| Oggi h: 06:56 | Foschia | 20 | 0 | 26 | 1019 | 5 | N 0 | |
| Oggi h: 06:55 | Cielo Invisibile | 20 | 0 | 26 | 1019 | 5 | N 0 | |
| Oggi h: 06:52 | Cielo Invisibile | 20 | 0 | 26 | 1019 | 5 | N 0 | |
| Oggi h: 06:51 | Foschia | 20 | 0 | 26 | 1019 | 5 | N 0 | |
| Oggi h: 06:50 | Poco Nuvoloso | 20 | 0 | 26 | 1019 | 2 | N 0 | |
| Oggi h: 06:47 | Poco Nuvoloso | 20 | 0 | 26 | 1019 | 3 | N 0 | |
| Oggi h: 06:46 | Poco Nuvoloso | 20 | 0 | 26 | 1019 | 5 | N 0 | |
| Oggi h: 06:45 | Foschia | 20 | 0 | 26 | 1019 | 5 | N 0 | |
| Oggi h: 06:41 | Cielo Invisibile | 19 | 0 | 27 | 1019 | 2 | N 0 | |
| Oggi h: 06:36 | Nebbia | 19 | 0 | 27 | 1019 | 2 | N 0 | |
| Oggi h: 06:35 | Sereno | 20 | 0 | 26 | 1019 | 2 | N 0 | |
| Oggi h: 06:30 | Nebbia | 20 | 0 | 26 | 1019 | 2 | N 0 | |
| Oggi h: 06:29 | Cielo Invisibile | 20 | 0 | 26 | 1019 | 5 | N 0 | |
| Oggi h: 06:27 | Foschia | 20 | 0 | 26 | 1019 | 2 | N 0 | |
| Oggi h: 06:26 | Poco Nuvoloso | 19 | 0 | 27 | 1019 | 5 | N 0 | |
| Oggi h: 06:23 | Poco Nuvoloso | 19 | 0 | 27 | 1019 | 3 | N 0 | |
| Oggi h: 06:22 | Foschia | 19 | 0 | 27 | 1019 | 3 | N 0 | |
| Oggi h: 06:20 | Cielo Invisibile | 20 | 0 | 26 | 1019 | 2 | N 0 | |
| Oggi h: 06:19 | Foschia | 20 | 0 | 26 | 1019 | 2 | N 0 | |
| Oggi h: 06:10 | Molto Nuvoloso | 20 | 0 | 26 | 1019 | 5 | N 0 | |
| Oggi h: 06:08 | Molto Nuvoloso | 20 | 0 | 26 | 1019 | 2 | N 0 | |
| Oggi h: 05:57 | Molto Nuvoloso | 20 | 0 | 26 | 1019 | 5 | N 0 | |
| Oggi h: 05:56 | Foschia | 20 | 0 | 26 | 1019 | 5 | N 0 | |
| Oggi h: 05:55 | Molto Nuvoloso | 20 | 0 | 26 | 1019 | 2 | N 0 | |
| Oggi h: 05:54 | Molto Nuvoloso | 21 | 0 | 24 | 1019 | 5 | N 0 | |
| Oggi h: 05:53 | Molto Nuvoloso | 21 | 0 | 24 | 1019 | 2 | N 0 | |
| Oggi h: 05:51 | Molto Nuvoloso | 21 | 0 | 24 | 1019 | 5 | N 0 | |
| Oggi h: 05:47 | Foschia | 21 | 0 | 24 | 1019 | 2 | N 0 | |
| Oggi h: 05:42 | Poco Nuvoloso | 21 | 0 | 24 | 1019 | 2 | N 0 | |
| Oggi h: 05:40 | Sereno | 21 | 0 | 24 | 1019 | 2 | N 0 | |
| Oggi h: 05:39 | Foschia | 21 | 0 | 24 | 1019 | 5 | N 0 | |
| Oggi h: 05:38 | Sereno | 21 | 0 | 24 | 1019 | 3 | N 0 | |
| Oggi h: 05:30 | Sereno | 19 | 0 | 27 | 1019 | 5 | N 0 | |
| Oggi h: 05:29 | Foschia | 19 | 0 | 27 | 1019 | 5 | N 0 | |
| Oggi h: 05:18 | Foschia | 21 | 0 | 24 | 1019 | 10 | N 0 | |
| Oggi h: 05:13 | Sereno | 21 | 0 | 24 | 1019 | 2 | N 0 | |
| Oggi h: 05:12 | Sereno | 21 | 0 | 24 | 1019 | 2 | N 0 | |
| Oggi h: 05:11 | Foschia | 21 | 0 | 24 | 1019 | 2 | N 0 | |
| Oggi h: 05:08 | Sereno | 21 | 0 | 24 | 1019 | 2 | N 0 | |
| Oggi h: 05:06 | Foschia | 21 | 0 | 24 | 1019 | 5 | N 0 | |
| Oggi h: 05:01 | Sereno | 20 | 0 | 26 | 1019 | 5 | N 0 | |
| Oggi h: 04:56 | Foschia | 21 | 0 | 24 | 1019 | 2 | N 0 | |
| Oggi h: 04:55 | Sereno | 21 | 0 | 24 | 1019 | 2 | N 0 | |
| Oggi h: 04:52 | Sereno | 21 | 0 | 24 | 1019 | 2 | N 0 | |
| Oggi h: 04:50 | Sereno | 20 | 0 | 26 | 1019 | 5 | N 0 | |
| Oggi h: 04:45 | Sereno | 20 | 0 | 26 | 1019 | 5 | N 0 | |
| Oggi h: 04:44 | Foschia | 20 | 0 | 26 | 1019 | 5 | N 0 | |
| Oggi h: 04:11 | Poco Nuvoloso | 20 | 0 | 26 | 1019 | 2 | N 0 | |
| Oggi h: 04:10 | Foschia | 20 | 0 | 26 | 1019 | 5 | N 0 | |
| Oggi h: 04:08 | Foschia | 20 | 0 | 26 | 1019 | 2 | N 0 | |
| Oggi h: 03:57 | Cielo Invisibile | 20 | 0 | 26 | 1019 | 5 | N 0 | |
| Oggi h: 03:56 | Foschia | 20 | 0 | 26 | 1019 | 5 | N 0 | |
| Oggi h: 03:55 | Poco Nuvoloso | 20 | 0 | 26 | 1019 | 2 | N 0 | |
| Oggi h: 03:54 | Sereno | 20 | 0 | 26 | 1019 | 5 | N 0 | |
| Oggi h: 03:53 | Foschia | 20 | 0 | 26 | 1019 | 5 | N 0 | |
| Oggi h: 03:52 | Sereno | 20 | 0 | 26 | 1019 | 2 | N 0 | |
| Oggi h: 03:45 | Sereno | 21 | 0 | 24 | 1019 | 5 | N 0 | |
| Oggi h: 03:44 | Foschia | 21 | 0 | 24 | 1019 | 5 | N 0 | |
| Oggi h: 03:40 | Sereno | 21 | 0 | 24 | 1019 | 3 | N 0 | |
| Oggi h: 03:36 | Sereno | 21 | 0 | 24 | 1019 | 5 | N 0 | |
| Oggi h: 03:35 | Foschia | 21 | 0 | 24 | 1019 | 5 | N 0 | |
| Oggi h: 03:31 | Sereno | 21 | 0 | 24 | 1019 | 2 | N 0 | |
| Oggi h: 02:57 | Sereno | 21 | 0 | 24 | 1019 | 5 | N 0 | |
| Oggi h: 02:56 | Foschia | 21 | 0 | 24 | 1019 | 5 | N 0 | |
| Oggi h: 02:55 | Sereno | 21 | 0 | 24 | 1019 | 2 | N 0 | |
| Oggi h: 02:52 | Sereno | 21 | 0 | 24 | 1019 | 2 | N 0 | |
| Oggi h: 02:47 | Foschia | 21 | 0 | 24 | 1019 | 5 | N 0 | |
| Oggi h: 02:42 | Sereno | 21 | 0 | 24 | 1019 | 5 | N 0 | |
| Oggi h: 02:38 | Sereno | 21 | 0 | 24 | 1019 | 5 | N 0 | |
| Oggi h: 02:37 | Foschia | 21 | 0 | 24 | 1019 | 5 | N 0 | |
| Oggi h: 02:34 | Sereno | 21 | 0 | 24 | 1019 | 5 | N 0 | |
| Oggi h: 02:33 | Foschia | 21 | 0 | 24 | 1019 | 5 | N 0 | |
| Oggi h: 02:31 | Sereno | 21 | 0 | 24 | 1019 | 3 | N 0 | |
| Oggi h: 02:21 | Sereno | 20 | 0 | 26 | 1019 | 5 | N 0 | |
| Oggi h: 02:19 | Sereno | 20 | 0 | 26 | 1019 | 3 | N 0 | |
| Oggi h: 02:17 | Foschia | 20 | 0 | 26 | 1019 | 5 | N 0 | |
| Oggi h: 02:12 | Sereno | 21 | 0 | 24 | 1019 | 2 | N 0 | |
| Oggi h: 01:56 | Nebbia | 21 | 0 | 24 | 1019 | 2 | N 0 | |
| Oggi h: 01:55 | Sereno | 21 | 0 | 24 | 1019 | 5 | N 0 | |
| Oggi h: 01:41 | Sereno | 21 | 0 | 24 | 1019 | 5 | N 0 | |
| Oggi h: 01:40 | Foschia | 21 | 0 | 24 | 1019 | 5 | N 0 | |
| Oggi h: 01:17 | Sereno | 21 | 0 | 24 | 1020 | 5 | N 0 | |
| Oggi h: 01:16 | Foschia | 21 | 0 | 24 | 1020 | 5 | N 0 | |
| Oggi h: 01:15 | Sereno | 21 | 0 | 24 | 1020 | 3 | N 0 | |
| Oggi h: 01:06 | Foschia | 21 | 0 | 24 | 1019 | 2 | N 0 | |
| Oggi h: 01:01 | Sereno | 21 | 0 | 24 | 1019 | 2 | N 0 | |
| Oggi h: 00:57 | Sereno | 21 | 0 | 24 | 1019 | 2 | N 0 | |
| Oggi h: 00:56 | Foschia | 21 | 0 | 24 | 1019 | 2 | N 0 | |
| Oggi h: 00:55 | Sereno | 21 | 0 | 24 | 1019 | 6 | N 0 | |
| Oggi h: 00:47 | Sereno | 22 | 0 | 23 | 1019 | 6 | N 0 | |
| Oggi h: 00:46 | Foschia | 22 | 0 | 23 | 1019 | 6 | N 0 | |
| Oggi h: 00:42 | Sereno | 21 | 0 | 24 | 1019 | 2 | N 0 | |
| Oggi h: 00:36 | Sereno | 21 | 0 | 24 | 1019 | 5 | N 0 | |
| Oggi h: 00:30 | Sereno | 21 | 0 | 24 | 1019 | 5 | N 0 | |
| Oggi h: 00:29 | Foschia | 21 | 0 | 24 | 1019 | 5 | N 0 | |
| Ieri h: 23:56 | Sereno | 22 | 0 | 23 | 1020 | 11 | N 0 | |
| Ieri h: 23:55 | Sereno | 22 | 0 | 23 | 1019 | 11 | N 0 | |
| Ieri h: 22:56 | Sereno | 22 | 0 | 23 | 1020 | 10 | N 0 | |
| Ieri h: 22:55 | Sereno | 22 | 0 | 23 | 1020 | 13 | N 0 | |
| Ieri h: 21:56 | Sereno | 23 | 0 | 21 | 1020 | 10 | N 0 | |
| Ieri h: 21:55 | Sereno | 23 | 0 | 21 | 1020 | 10 | N 0 | |
| Ieri h: 20:56 | Sereno | 25 | 24 | 94 | 1020 | 10 | N 5.5 | |
| Ieri h: 20:55 | Sereno | 25 | 24 | 94 | 1020 | 10 | E/SE 7.4 | |
| Ieri h: 19:56 | Poco Nuvoloso | 26 | 23 | 83 | 1020 | 10 | N 5.5 | |
| Ieri h: 19:55 | Poco Nuvoloso | 26 | 23 | 83 | 1020 | 10 | SE 7.4 | |
| Ieri h: 18:56 | Sereno | 28 | 23 | 74 | 1020 | 10 | SE 9.3 | |
| Ieri h: 18:55 | Sereno | 28 | 23 | 74 | 1020 | 10 | SE 9.3 | |
| Ieri h: 17:56 | Nuvoloso | 29 | 24 | 74 | 1020 | 10 | E/SE 13 | |
| Ieri h: 17:55 | Nuvoloso | 29 | 24 | 74 | 1020 | 10 | E/SE 14.8 | |
| Ieri h: 17:53 | Nuvoloso | 29 | 24 | 74 | 1020 | 10 | SE 13 | |
| Ieri h: 17:41 | Molto Nuvoloso | 29 | 24 | 74 | 1020 | 10 | SE 14.8 | |



